sensor_id;sensor_type;location;lat;lon;timestamp;P1;durP1;ratioP1;P2;durP2;ratioP2
19343;SDS011;9808;52.402;16.678;2024-02-28T00:00:16;108.87;;;42.47;;
19343;SDS011;9808;52.402;16.678;2024-02-28T00:02:43;114.53;;;43.17;;
19343;SDS011;9808;52.402;16.678;2024-02-28T00:05:10;114.37;;;43.70;;
19343;SDS011;9808;52.402;16.678;2024-02-28T00:07:38;124.40;;;45.03;;
19343;SDS011;9808;52.402;16.678;2024-02-28T00:10:05;115.67;;;43.40;;
19343;SDS011;9808;52.402;16.678;2024-02-28T00:12:33;105.87;;;42.10;;
19343;SDS011;9808;52.402;16.678;2024-02-28T00:15:01;108.63;;;42.67;;
19343;SDS011;9808;52.402;16.678;2024-02-28T00:17:28;101.93;;;41.17;;
19343;SDS011;9808;52.402;16.678;2024-02-28T00:19:55;87.63;;;38.60;;
19343;SDS011;9808;52.402;16.678;2024-02-28T00:22:22;95.93;;;39.93;;
19343;SDS011;9808;52.402;16.678;2024-02-28T00:24:49;90.17;;;39.93;;
19343;SDS011;9808;52.402;16.678;2024-02-28T00:27:17;99.00;;;40.07;;
19343;SDS011;9808;52.402;16.678;2024-02-28T00:29:44;96.23;;;42.47;;
19343;SDS011;9808;52.402;16.678;2024-02-28T00:32:12;100.70;;;40.23;;
19343;SDS011;9808;52.402;16.678;2024-02-28T00:34:39;103.20;;;44.07;;
19343;SDS011;9808;52.402;16.678;2024-02-28T00:37:07;110.37;;;43.40;;
19343;SDS011;9808;52.402;16.678;2024-02-28T00:39:34;103.70;;;43.27;;
19343;SDS011;9808;52.402;16.678;2024-02-28T00:42:01;102.83;;;43.10;;
19343;SDS011;9808;52.402;16.678;2024-02-28T00:44:29;107.47;;;41.93;;
19343;SDS011;9808;52.402;16.678;2024-02-28T00:46:56;98.67;;;42.00;;
19343;SDS011;9808;52.402;16.678;2024-02-28T00:49:23;94.50;;;39.57;;
19343;SDS011;9808;52.402;16.678;2024-02-28T00:51:50;91.20;;;40.37;;
19343;SDS011;9808;52.402;16.678;2024-02-28T00:54:18;99.63;;;41.60;;
19343;SDS011;9808;52.402;16.678;2024-02-28T00:56:48;104.93;;;41.20;;
19343;SDS011;9808;52.402;16.678;2024-02-28T00:59:15;96.80;;;39.03;;
19343;SDS011;9808;52.402;16.678;2024-02-28T01:01:44;87.90;;;39.83;;
19343;SDS011;9808;52.402;16.678;2024-02-28T01:04:11;101.93;;;40.77;;
19343;SDS011;9808;52.402;16.678;2024-02-28T01:06:39;85.77;;;39.10;;
19343;SDS011;9808;52.402;16.678;2024-02-28T01:09:06;85.53;;;37.73;;
19343;SDS011;9808;52.402;16.678;2024-02-28T01:11:33;77.43;;;35.80;;
19343;SDS011;9808;52.402;16.678;2024-02-28T01:14:00;83.40;;;36.50;;
19343;SDS011;9808;52.402;16.678;2024-02-28T01:16:27;74.00;;;33.90;;
19343;SDS011;9808;52.402;16.678;2024-02-28T01:18:55;78.87;;;34.03;;
19343;SDS011;9808;52.402;16.678;2024-02-28T01:21:22;73.90;;;34.90;;
19343;SDS011;9808;52.402;16.678;2024-02-28T01:23:49;75.20;;;35.30;;
19343;SDS011;9808;52.402;16.678;2024-02-28T01:26:16;76.23;;;34.30;;
19343;SDS011;9808;52.402;16.678;2024-02-28T01:28:46;74.67;;;34.77;;
19343;SDS011;9808;52.402;16.678;2024-02-28T01:31:13;74.73;;;35.83;;
19343;SDS011;9808;52.402;16.678;2024-02-28T01:33:40;81.27;;;35.77;;
19343;SDS011;9808;52.402;16.678;2024-02-28T01:36:08;81.40;;;36.67;;
19343;SDS011;9808;52.402;16.678;2024-02-28T01:38:35;79.07;;;35.10;;
19343;SDS011;9808;52.402;16.678;2024-02-28T01:41:02;79.50;;;33.93;;
19343;SDS011;9808;52.402;16.678;2024-02-28T01:43:31;78.23;;;35.07;;
19343;SDS011;9808;52.402;16.678;2024-02-28T01:45:59;72.37;;;32.70;;
19343;SDS011;9808;52.402;16.678;2024-02-28T01:48:28;75.20;;;34.57;;
19343;SDS011;9808;52.402;16.678;2024-02-28T01:50:56;71.27;;;33.80;;
19343;SDS011;9808;52.402;16.678;2024-02-28T01:53:23;69.23;;;33.17;;
19343;SDS011;9808;52.402;16.678;2024-02-28T01:55:51;76.73;;;33.17;;
19343;SDS011;9808;52.402;16.678;2024-02-28T01:58:18;82.20;;;35.47;;
19343;SDS011;9808;52.402;16.678;2024-02-28T02:00:46;75.93;;;33.83;;
19343;SDS011;9808;52.402;16.678;2024-02-28T02:03:15;68.50;;;31.73;;
19343;SDS011;9808;52.402;16.678;2024-02-28T02:05:42;72.70;;;34.80;;
19343;SDS011;9808;52.402;16.678;2024-02-28T02:08:09;69.70;;;33.97;;
19343;SDS011;9808;52.402;16.678;2024-02-28T02:10:36;69.27;;;32.10;;
19343;SDS011;9808;52.402;16.678;2024-02-28T02:13:06;78.10;;;33.90;;
19343;SDS011;9808;52.402;16.678;2024-02-28T02:15:33;84.00;;;34.47;;
19343;SDS011;9808;52.402;16.678;2024-02-28T02:18:01;75.90;;;33.87;;
19343;SDS011;9808;52.402;16.678;2024-02-28T02:20:29;85.47;;;35.53;;
19343;SDS011;9808;52.402;16.678;2024-02-28T02:22:57;77.83;;;35.00;;
19343;SDS011;9808;52.402;16.678;2024-02-28T02:25:25;79.27;;;35.70;;
19343;SDS011;9808;52.402;16.678;2024-02-28T02:27:52;71.80;;;33.50;;
19343;SDS011;9808;52.402;16.678;2024-02-28T02:30:19;75.33;;;33.60;;
19343;SDS011;9808;52.402;16.678;2024-02-28T02:32:46;71.80;;;32.20;;
19343;SDS011;9808;52.402;16.678;2024-02-28T02:35:14;72.00;;;33.27;;
19343;SDS011;9808;52.402;16.678;2024-02-28T02:37:44;72.50;;;32.40;;
19343;SDS011;9808;52.402;16.678;2024-02-28T02:40:15;81.03;;;36.40;;
19343;SDS011;9808;52.402;16.678;2024-02-28T02:42:42;82.30;;;35.60;;
19343;SDS011;9808;52.402;16.678;2024-02-28T02:45:09;81.50;;;35.73;;
19343;SDS011;9808;52.402;16.678;2024-02-28T02:47:37;80.83;;;34.27;;
19343;SDS011;9808;52.402;16.678;2024-02-28T02:50:04;74.53;;;33.60;;
19343;SDS011;9808;52.402;16.678;2024-02-28T02:52:31;82.47;;;33.53;;
19343;SDS011;9808;52.402;16.678;2024-02-28T02:54:59;75.87;;;32.40;;
19343;SDS011;9808;52.402;16.678;2024-02-28T02:57:26;74.07;;;33.40;;
19343;SDS011;9808;52.402;16.678;2024-02-28T02:59:53;79.60;;;34.10;;
19343;SDS011;9808;52.402;16.678;2024-02-28T03:02:20;70.50;;;32.20;;
19343;SDS011;9808;52.402;16.678;2024-02-28T03:04:47;72.47;;;31.97;;
19343;SDS011;9808;52.402;16.678;2024-02-28T03:07:15;70.17;;;31.20;;
19343;SDS011;9808;52.402;16.678;2024-02-28T03:09:42;70.87;;;31.20;;
19343;SDS011;9808;52.402;16.678;2024-02-28T03:12:09;73.33;;;31.57;;
19343;SDS011;9808;52.402;16.678;2024-02-28T03:14:36;75.00;;;31.83;;
19343;SDS011;9808;52.402;16.678;2024-02-28T03:17:04;69.47;;;31.27;;
19343;SDS011;9808;52.402;16.678;2024-02-28T03:19:31;74.10;;;31.90;;
19343;SDS011;9808;52.402;16.678;2024-02-28T03:21:58;72.53;;;32.73;;
19343;SDS011;9808;52.402;16.678;2024-02-28T03:24:25;67.20;;;31.63;;
19343;SDS011;9808;52.402;16.678;2024-02-28T03:26:53;68.67;;;31.97;;
19343;SDS011;9808;52.402;16.678;2024-02-28T03:29:20;65.03;;;31.33;;
19343;SDS011;9808;52.402;16.678;2024-02-28T03:31:47;63.70;;;30.37;;
19343;SDS011;9808;52.402;16.678;2024-02-28T03:34:14;65.73;;;30.50;;
19343;SDS011;9808;52.402;16.678;2024-02-28T03:36:41;69.80;;;29.00;;
19343;SDS011;9808;52.402;16.678;2024-02-28T03:39:09;68.73;;;31.83;;
19343;SDS011;9808;52.402;16.678;2024-02-28T03:41:36;66.87;;;30.90;;
19343;SDS011;9808;52.402;16.678;2024-02-28T03:44:04;77.57;;;33.13;;
19343;SDS011;9808;52.402;16.678;2024-02-28T03:46:31;70.70;;;31.17;;
19343;SDS011;9808;52.402;16.678;2024-02-28T03:48:59;73.20;;;30.93;;
19343;SDS011;9808;52.402;16.678;2024-02-28T03:51:26;89.77;;;31.90;;
19343;SDS011;9808;52.402;16.678;2024-02-28T03:53:53;78.40;;;31.73;;
19343;SDS011;9808;52.402;16.678;2024-02-28T03:56:24;81.77;;;31.13;;
19343;SDS011;9808;52.402;16.678;2024-02-28T03:58:52;85.20;;;31.70;;
19343;SDS011;9808;52.402;16.678;2024-02-28T04:01:19;97.53;;;29.63;;
19343;SDS011;9808;52.402;16.678;2024-02-28T04:03:47;95.03;;;31.60;;
19343;SDS011;9808;52.402;16.678;2024-02-28T04:06:14;91.07;;;29.93;;
19343;SDS011;9808;52.402;16.678;2024-02-28T04:08:41;86.07;;;29.57;;
19343;SDS011;9808;52.402;16.678;2024-02-28T04:11:08;95.10;;;29.13;;
19343;SDS011;9808;52.402;16.678;2024-02-28T04:13:36;86.93;;;27.87;;
19343;SDS011;9808;52.402;16.678;2024-02-28T04:16:03;80.50;;;27.90;;
19343;SDS011;9808;52.402;16.678;2024-02-28T04:18:30;73.50;;;26.70;;
19343;SDS011;9808;52.402;16.678;2024-02-28T04:20:57;94.67;;;26.70;;
19343;SDS011;9808;52.402;16.678;2024-02-28T04:23:25;79.43;;;27.47;;
19343;SDS011;9808;52.402;16.678;2024-02-28T04:25:52;89.23;;;26.53;;
19343;SDS011;9808;52.402;16.678;2024-02-28T04:28:19;100.07;;;27.43;;
19343;SDS011;9808;52.402;16.678;2024-02-28T04:30:46;90.87;;;26.57;;
19343;SDS011;9808;52.402;16.678;2024-02-28T04:33:13;79.03;;;26.97;;
19343;SDS011;9808;52.402;16.678;2024-02-28T04:35:41;83.57;;;24.63;;
19343;SDS011;9808;52.402;16.678;2024-02-28T04:38:08;95.20;;;26.27;;
19343;SDS011;9808;52.402;16.678;2024-02-28T04:40:35;89.33;;;25.73;;
19343;SDS011;9808;52.402;16.678;2024-02-28T04:43:03;99.03;;;25.10;;
19343;SDS011;9808;52.402;16.678;2024-02-28T04:45:30;103.43;;;24.50;;
19343;SDS011;9808;52.402;16.678;2024-02-28T04:47:57;88.40;;;22.83;;
19343;SDS011;9808;52.402;16.678;2024-02-28T04:50:24;79.93;;;21.70;;
19343;SDS011;9808;52.402;16.678;2024-02-28T04:52:51;81.17;;;22.90;;
19343;SDS011;9808;52.402;16.678;2024-02-28T04:55:18;65.10;;;21.70;;
19343;SDS011;9808;52.402;16.678;2024-02-28T04:57:46;87.83;;;22.73;;
19343;SDS011;9808;52.402;16.678;2024-02-28T05:00:13;71.10;;;21.00;;
19343;SDS011;9808;52.402;16.678;2024-02-28T05:02:41;108.33;;;23.20;;
19343;SDS011;9808;52.402;16.678;2024-02-28T05:05:08;71.77;;;21.23;;
19343;SDS011;9808;52.402;16.678;2024-02-28T05:07:35;64.80;;;19.67;;
19343;SDS011;9808;52.402;16.678;2024-02-28T05:10:02;66.07;;;20.00;;
19343;SDS011;9808;52.402;16.678;2024-02-28T05:12:29;76.90;;;20.87;;
19343;SDS011;9808;52.402;16.678;2024-02-28T05:14:57;77.97;;;19.93;;
19343;SDS011;9808;52.402;16.678;2024-02-28T05:17:24;67.83;;;20.27;;
19343;SDS011;9808;52.402;16.678;2024-02-28T05:19:51;89.93;;;20.43;;
19343;SDS011;9808;52.402;16.678;2024-02-28T05:22:18;77.93;;;20.53;;
19343;SDS011;9808;52.402;16.678;2024-02-28T05:24:46;71.17;;;18.97;;
19343;SDS011;9808;52.402;16.678;2024-02-28T05:27:13;83.20;;;19.10;;
19343;SDS011;9808;52.402;16.678;2024-02-28T05:29:40;70.80;;;19.53;;
19343;SDS011;9808;52.402;16.678;2024-02-28T05:32:09;94.03;;;21.47;;
19343;SDS011;9808;52.402;16.678;2024-02-28T05:34:36;138.77;;;23.10;;
19343;SDS011;9808;52.402;16.678;2024-02-28T05:37:03;93.80;;;21.17;;
19343;SDS011;9808;52.402;16.678;2024-02-28T05:39:30;81.30;;;20.87;;
19343;SDS011;9808;52.402;16.678;2024-02-28T05:41:58;121.67;;;23.33;;
19343;SDS011;9808;52.402;16.678;2024-02-28T05:44:25;75.57;;;19.60;;
19343;SDS011;9808;52.402;16.678;2024-02-28T05:46:52;91.10;;;22.20;;
19343;SDS011;9808;52.402;16.678;2024-02-28T05:49:19;74.37;;;19.83;;
19343;SDS011;9808;52.402;16.678;2024-02-28T05:51:46;83.27;;;20.37;;
19343;SDS011;9808;52.402;16.678;2024-02-28T05:54:14;81.57;;;20.57;;
19343;SDS011;9808;52.402;16.678;2024-02-28T05:56:41;83.93;;;20.80;;
19343;SDS011;9808;52.402;16.678;2024-02-28T05:59:08;88.20;;;19.57;;
19343;SDS011;9808;52.402;16.678;2024-02-28T06:01:35;77.60;;;20.97;;
19343;SDS011;9808;52.402;16.678;2024-02-28T06:04:04;78.17;;;18.67;;
19343;SDS011;9808;52.402;16.678;2024-02-28T06:06:31;82.83;;;19.73;;
19343;SDS011;9808;52.402;16.678;2024-02-28T06:08:59;86.37;;;21.40;;
19343;SDS011;9808;52.402;16.678;2024-02-28T06:11:26;79.13;;;19.67;;
19343;SDS011;9808;52.402;16.678;2024-02-28T06:13:53;68.17;;;19.33;;
19343;SDS011;9808;52.402;16.678;2024-02-28T06:16:20;78.63;;;20.37;;
19343;SDS011;9808;52.402;16.678;2024-02-28T06:18:47;72.83;;;19.23;;
19343;SDS011;9808;52.402;16.678;2024-02-28T06:21:15;79.30;;;20.60;;
19343;SDS011;9808;52.402;16.678;2024-02-28T06:23:42;69.53;;;20.27;;
19343;SDS011;9808;52.402;16.678;2024-02-28T06:26:10;64.27;;;18.97;;
19343;SDS011;9808;52.402;16.678;2024-02-28T06:28:43;72.07;;;17.43;;
19343;SDS011;9808;52.402;16.678;2024-02-28T06:31:14;74.73;;;18.17;;
19343;SDS011;9808;52.402;16.678;2024-02-28T06:33:42;81.17;;;19.17;;
19343;SDS011;9808;52.402;16.678;2024-02-28T06:36:10;71.23;;;20.47;;
19343;SDS011;9808;52.402;16.678;2024-02-28T06:38:37;71.43;;;18.33;;
19343;SDS011;9808;52.402;16.678;2024-02-28T06:41:04;66.03;;;19.23;;
19343;SDS011;9808;52.402;16.678;2024-02-28T06:43:34;105.10;;;18.20;;
19343;SDS011;9808;52.402;16.678;2024-02-28T06:46:02;73.40;;;17.97;;
19343;SDS011;9808;52.402;16.678;2024-02-28T06:48:29;61.03;;;17.97;;
19343;SDS011;9808;52.402;16.678;2024-02-28T06:50:56;59.57;;;18.27;;
19343;SDS011;9808;52.402;16.678;2024-02-28T06:53:25;60.90;;;17.17;;
19343;SDS011;9808;52.402;16.678;2024-02-28T06:55:52;53.83;;;15.27;;
19343;SDS011;9808;52.402;16.678;2024-02-28T06:58:19;44.00;;;14.33;;
19343;SDS011;9808;52.402;16.678;2024-02-28T07:00:48;52.53;;;15.17;;
19343;SDS011;9808;52.402;16.678;2024-02-28T07:03:20;40.67;;;13.53;;
19343;SDS011;9808;52.402;16.678;2024-02-28T07:05:47;39.67;;;12.87;;
19343;SDS011;9808;52.402;16.678;2024-02-28T07:08:14;35.03;;;13.23;;
19343;SDS011;9808;52.402;16.678;2024-02-28T07:10:42;37.63;;;14.27;;
19343;SDS011;9808;52.402;16.678;2024-02-28T07:13:10;47.50;;;14.80;;
19343;SDS011;9808;52.402;16.678;2024-02-28T07:15:37;52.87;;;15.07;;
19343;SDS011;9808;52.402;16.678;2024-02-28T07:18:06;42.23;;;13.43;;
19343;SDS011;9808;52.402;16.678;2024-02-28T07:20:33;46.57;;;14.37;;
19343;SDS011;9808;52.402;16.678;2024-02-28T07:23:00;37.47;;;13.53;;
19343;SDS011;9808;52.402;16.678;2024-02-28T07:25:28;47.73;;;15.57;;
19343;SDS011;9808;52.402;16.678;2024-02-28T07:27:57;51.77;;;15.03;;
19343;SDS011;9808;52.402;16.678;2024-02-28T07:30:25;35.20;;;14.37;;
19343;SDS011;9808;52.402;16.678;2024-02-28T07:32:52;49.77;;;14.53;;
19343;SDS011;9808;52.402;16.678;2024-02-28T07:35:20;50.70;;;15.83;;
19343;SDS011;9808;52.402;16.678;2024-02-28T07:37:50;38.00;;;14.10;;
19343;SDS011;9808;52.402;16.678;2024-02-28T07:40:17;50.47;;;13.97;;
19343;SDS011;9808;52.402;16.678;2024-02-28T07:42:44;42.90;;;14.77;;
19343;SDS011;9808;52.402;16.678;2024-02-28T07:45:12;41.57;;;15.03;;
19343;SDS011;9808;52.402;16.678;2024-02-28T07:47:39;48.33;;;15.03;;
19343;SDS011;9808;52.402;16.678;2024-02-28T07:50:07;33.83;;;13.70;;
19343;SDS011;9808;52.402;16.678;2024-02-28T07:52:34;39.03;;;14.10;;
19343;SDS011;9808;52.402;16.678;2024-02-28T07:55:03;33.33;;;13.00;;
19343;SDS011;9808;52.402;16.678;2024-02-28T07:57:32;41.20;;;15.67;;
19343;SDS011;9808;52.402;16.678;2024-02-28T07:59:59;51.80;;;19.10;;
19343;SDS011;9808;52.402;16.678;2024-02-28T08:02:27;38.17;;;14.83;;
19343;SDS011;9808;52.402;16.678;2024-02-28T08:04:54;33.30;;;14.57;;
19343;SDS011;9808;52.402;16.678;2024-02-28T08:07:21;56.47;;;21.53;;
19343;SDS011;9808;52.402;16.678;2024-02-28T08:09:48;39.10;;;14.73;;
19343;SDS011;9808;52.402;16.678;2024-02-28T08:12:16;34.53;;;14.40;;
19343;SDS011;9808;52.402;16.678;2024-02-28T08:14:43;31.40;;;13.03;;
19343;SDS011;9808;52.402;16.678;2024-02-28T08:17:10;26.97;;;12.43;;
19343;SDS011;9808;52.402;16.678;2024-02-28T08:19:40;26.10;;;12.27;;
19343;SDS011;9808;52.402;16.678;2024-02-28T08:22:08;25.20;;;11.73;;
19343;SDS011;9808;52.402;16.678;2024-02-28T08:24:37;26.10;;;11.27;;
19343;SDS011;9808;52.402;16.678;2024-02-28T08:27:05;22.77;;;11.27;;
19343;SDS011;9808;52.402;16.678;2024-02-28T08:29:32;24.70;;;11.73;;
19343;SDS011;9808;52.402;16.678;2024-02-28T08:32:01;23.20;;;11.03;;
19343;SDS011;9808;52.402;16.678;2024-02-28T08:34:29;28.70;;;11.57;;
19343;SDS011;9808;52.402;16.678;2024-02-28T08:36:56;23.23;;;10.07;;
19343;SDS011;9808;52.402;16.678;2024-02-28T08:39:23;23.10;;;10.63;;
19343;SDS011;9808;52.402;16.678;2024-02-28T08:41:51;27.33;;;11.80;;
19343;SDS011;9808;52.402;16.678;2024-02-28T08:44:18;32.77;;;12.30;;
19343;SDS011;9808;52.402;16.678;2024-02-28T08:46:46;30.27;;;12.90;;
19343;SDS011;9808;52.402;16.678;2024-02-28T08:49:14;32.07;;;13.10;;
19343;SDS011;9808;52.402;16.678;2024-02-28T08:51:41;27.77;;;11.07;;
19343;SDS011;9808;52.402;16.678;2024-02-28T08:54:09;28.07;;;12.00;;
19343;SDS011;9808;52.402;16.678;2024-02-28T08:56:37;30.43;;;13.70;;
19343;SDS011;9808;52.402;16.678;2024-02-28T08:59:14;26.43;;;11.57;;
19343;SDS011;9808;52.402;16.678;2024-02-28T09:01:42;24.70;;;10.97;;
19343;SDS011;9808;52.402;16.678;2024-02-28T09:04:10;29.27;;;13.20;;
19343;SDS011;9808;52.402;16.678;2024-02-28T09:06:37;26.63;;;11.07;;
19343;SDS011;9808;52.402;16.678;2024-02-28T09:09:04;28.33;;;12.17;;
19343;SDS011;9808;52.402;16.678;2024-02-28T09:11:31;27.33;;;11.90;;
19343;SDS011;9808;52.402;16.678;2024-02-28T09:13:58;26.03;;;12.00;;
19343;SDS011;9808;52.402;16.678;2024-02-28T09:16:26;23.60;;;9.53;;
19343;SDS011;9808;52.402;16.678;2024-02-28T09:18:53;25.53;;;10.07;;
19343;SDS011;9808;52.402;16.678;2024-02-28T09:21:20;22.07;;;10.73;;
19343;SDS011;9808;52.402;16.678;2024-02-28T09:23:47;23.60;;;10.73;;
19343;SDS011;9808;52.402;16.678;2024-02-28T09:26:14;26.27;;;9.37;;
19343;SDS011;9808;52.402;16.678;2024-02-28T09:28:42;24.60;;;11.40;;
19343;SDS011;9808;52.402;16.678;2024-02-28T09:31:09;27.67;;;11.00;;
19343;SDS011;9808;52.402;16.678;2024-02-28T09:33:37;23.07;;;10.30;;
19343;SDS011;9808;52.402;16.678;2024-02-28T09:36:04;20.27;;;9.63;;
19343;SDS011;9808;52.402;16.678;2024-02-28T09:38:31;24.73;;;11.10;;
19343;SDS011;9808;52.402;16.678;2024-02-28T09:41:01;27.17;;;10.83;;
19343;SDS011;9808;52.402;16.678;2024-02-28T09:43:28;20.97;;;10.87;;
19343;SDS011;9808;52.402;16.678;2024-02-28T09:45:58;26.97;;;11.30;;
19343;SDS011;9808;52.402;16.678;2024-02-28T09:48:27;25.23;;;10.33;;
19343;SDS011;9808;52.402;16.678;2024-02-28T09:50:56;29.17;;;11.60;;
19343;SDS011;9808;52.402;16.678;2024-02-28T09:53:24;24.13;;;10.77;;
19343;SDS011;9808;52.402;16.678;2024-02-28T09:55:51;23.67;;;11.03;;
19343;SDS011;9808;52.402;16.678;2024-02-28T09:58:19;27.17;;;11.47;;
19343;SDS011;9808;52.402;16.678;2024-02-28T10:00:47;30.47;;;12.33;;
19343;SDS011;9808;52.402;16.678;2024-02-28T10:03:18;31.83;;;12.17;;
19343;SDS011;9808;52.402;16.678;2024-02-28T10:05:46;34.50;;;12.63;;
19343;SDS011;9808;52.402;16.678;2024-02-28T10:08:13;27.37;;;12.23;;
19343;SDS011;9808;52.402;16.678;2024-02-28T10:10:45;30.43;;;12.60;;
19343;SDS011;9808;52.402;16.678;2024-02-28T10:13:13;30.67;;;13.17;;
19343;SDS011;9808;52.402;16.678;2024-02-28T10:15:41;30.40;;;12.80;;
19343;SDS011;9808;52.402;16.678;2024-02-28T10:18:08;31.73;;;12.80;;
19343;SDS011;9808;52.402;16.678;2024-02-28T10:20:35;32.43;;;12.93;;
19343;SDS011;9808;52.402;16.678;2024-02-28T10:23:03;29.77;;;11.90;;
19343;SDS011;9808;52.402;16.678;2024-02-28T10:25:32;34.23;;;13.60;;
19343;SDS011;9808;52.402;16.678;2024-02-28T10:28:10;29.33;;;12.30;;
19343;SDS011;9808;52.402;16.678;2024-02-28T10:30:41;27.43;;;11.40;;
19343;SDS011;9808;52.402;16.678;2024-02-28T10:33:13;30.47;;;12.53;;
19343;SDS011;9808;52.402;16.678;2024-02-28T10:35:40;31.10;;;12.63;;
19343;SDS011;9808;52.402;16.678;2024-02-28T10:38:11;28.87;;;11.90;;
19343;SDS011;9808;52.402;16.678;2024-02-28T10:40:40;26.17;;;11.40;;
19343;SDS011;9808;52.402;16.678;2024-02-28T10:43:07;29.90;;;11.77;;
19343;SDS011;9808;52.402;16.678;2024-02-28T10:45:36;41.33;;;13.43;;
19343;SDS011;9808;52.402;16.678;2024-02-28T10:48:27;30.43;;;11.93;;
19343;SDS011;9808;52.402;16.678;2024-02-28T10:50:54;25.97;;;11.57;;
19343;SDS011;9808;52.402;16.678;2024-02-28T10:53:22;27.53;;;11.33;;
19343;SDS011;9808;52.402;16.678;2024-02-28T10:55:54;27.03;;;12.10;;
19343;SDS011;9808;52.402;16.678;2024-02-28T10:58:23;41.17;;;14.87;;
19343;SDS011;9808;52.402;16.678;2024-02-28T11:00:51;34.80;;;13.40;;
19343;SDS011;9808;52.402;16.678;2024-02-28T11:03:19;37.83;;;15.17;;
19343;SDS011;9808;52.402;16.678;2024-02-28T11:05:48;30.53;;;12.60;;
19343;SDS011;9808;52.402;16.678;2024-02-28T11:08:22;27.77;;;11.27;;
19343;SDS011;9808;52.402;16.678;2024-02-28T11:13:23;26.20;;;11.00;;
19343;SDS011;9808;52.402;16.678;2024-02-28T11:15:51;23.03;;;9.93;;
19343;SDS011;9808;52.402;16.678;2024-02-28T11:18:18;35.20;;;14.43;;
19343;SDS011;9808;52.402;16.678;2024-02-28T11:20:46;49.90;;;19.17;;
19343;SDS011;9808;52.402;16.678;2024-02-28T11:23:15;53.33;;;20.67;;
19343;SDS011;9808;52.402;16.678;2024-02-28T11:25:43;34.87;;;14.17;;
19343;SDS011;9808;52.402;16.678;2024-02-28T11:28:11;29.20;;;12.97;;
19343;SDS011;9808;52.402;16.678;2024-02-28T11:30:38;26.67;;;11.93;;
19343;SDS011;9808;52.402;16.678;2024-02-28T11:33:05;33.47;;;13.27;;
19343;SDS011;9808;52.402;16.678;2024-02-28T11:35:35;22.50;;;10.60;;
19343;SDS011;9808;52.402;16.678;2024-02-28T11:38:02;36.13;;;14.90;;
19343;SDS011;9808;52.402;16.678;2024-02-28T11:40:33;34.00;;;14.83;;
19343;SDS011;9808;52.402;16.678;2024-02-28T11:43:00;39.40;;;15.90;;
19343;SDS011;9808;52.402;16.678;2024-02-28T11:45:30;21.43;;;9.37;;
19343;SDS011;9808;52.402;16.678;2024-02-28T11:47:57;19.47;;;8.93;;
19343;SDS011;9808;52.402;16.678;2024-02-28T11:50:24;21.57;;;8.70;;
19343;SDS011;9808;52.402;16.678;2024-02-28T11:52:56;18.57;;;8.10;;
19343;SDS011;9808;52.402;16.678;2024-02-28T11:55:24;18.23;;;8.30;;
19343;SDS011;9808;52.402;16.678;2024-02-28T11:57:52;19.67;;;8.87;;
19343;SDS011;9808;52.402;16.678;2024-02-28T12:00:19;22.37;;;9.43;;
19343;SDS011;9808;52.402;16.678;2024-02-28T12:02:46;24.27;;;8.83;;
19343;SDS011;9808;52.402;16.678;2024-02-28T12:05:19;30.70;;;11.50;;
19343;SDS011;9808;52.402;16.678;2024-02-28T12:07:46;39.17;;;15.17;;
19343;SDS011;9808;52.402;16.678;2024-02-28T12:10:13;32.13;;;14.17;;
19343;SDS011;9808;52.402;16.678;2024-02-28T12:12:41;32.30;;;11.97;;
19343;SDS011;9808;52.402;16.678;2024-02-28T12:15:08;38.73;;;15.13;;
19343;SDS011;9808;52.402;16.678;2024-02-28T12:17:36;32.87;;;14.03;;
19343;SDS011;9808;52.402;16.678;2024-02-28T12:20:04;34.63;;;12.67;;
19343;SDS011;9808;52.402;16.678;2024-02-28T12:22:32;27.20;;;11.17;;
19343;SDS011;9808;52.402;16.678;2024-02-28T12:24:59;33.13;;;12.80;;
19343;SDS011;9808;52.402;16.678;2024-02-28T12:27:30;34.43;;;12.53;;
19343;SDS011;9808;52.402;16.678;2024-02-28T12:29:58;29.87;;;11.73;;
19343;SDS011;9808;52.402;16.678;2024-02-28T12:32:25;27.77;;;11.50;;
19343;SDS011;9808;52.402;16.678;2024-02-28T12:34:52;26.53;;;11.03;;
19343;SDS011;9808;52.402;16.678;2024-02-28T12:37:20;27.90;;;12.00;;
19343;SDS011;9808;52.402;16.678;2024-02-28T12:39:47;25.77;;;10.07;;
19343;SDS011;9808;52.402;16.678;2024-02-28T12:42:14;27.50;;;10.57;;
19343;SDS011;9808;52.402;16.678;2024-02-28T12:44:41;27.97;;;11.17;;
19343;SDS011;9808;52.402;16.678;2024-02-28T12:47:12;25.83;;;10.43;;
19343;SDS011;9808;52.402;16.678;2024-02-28T12:49:39;29.10;;;11.07;;
19343;SDS011;9808;52.402;16.678;2024-02-28T12:52:06;28.90;;;11.03;;
19343;SDS011;9808;52.402;16.678;2024-02-28T12:54:33;26.60;;;11.00;;
19343;SDS011;9808;52.402;16.678;2024-02-28T12:57:01;25.83;;;9.80;;
19343;SDS011;9808;52.402;16.678;2024-02-28T12:59:31;25.40;;;10.10;;
19343;SDS011;9808;52.402;16.678;2024-02-28T13:01:59;23.50;;;10.57;;
19343;SDS011;9808;52.402;16.678;2024-02-28T13:04:26;25.40;;;10.73;;
19343;SDS011;9808;52.402;16.678;2024-02-28T13:06:54;28.60;;;11.83;;
19343;SDS011;9808;52.402;16.678;2024-02-28T13:09:21;31.87;;;13.37;;
19343;SDS011;9808;52.402;16.678;2024-02-28T13:11:50;35.93;;;14.10;;
19343;SDS011;9808;52.402;16.678;2024-02-28T13:14:17;32.37;;;13.97;;
19343;SDS011;9808;52.402;16.678;2024-02-28T13:16:44;39.83;;;15.73;;
19343;SDS011;9808;52.402;16.678;2024-02-28T13:19:11;47.00;;;18.23;;
19343;SDS011;9808;52.402;16.678;2024-02-28T13:21:40;52.67;;;20.13;;
19343;SDS011;9808;52.402;16.678;2024-02-28T13:24:07;46.10;;;17.90;;
19343;SDS011;9808;52.402;16.678;2024-02-28T13:26:35;48.77;;;18.50;;
19343;SDS011;9808;52.402;16.678;2024-02-28T13:29:02;42.30;;;16.77;;
19343;SDS011;9808;52.402;16.678;2024-02-28T13:31:29;55.47;;;20.73;;
19343;SDS011;9808;52.402;16.678;2024-02-28T13:33:57;48.97;;;18.23;;
19343;SDS011;9808;52.402;16.678;2024-02-28T13:36:24;56.43;;;23.47;;
19343;SDS011;9808;52.402;16.678;2024-02-28T13:38:51;65.67;;;24.20;;
19343;SDS011;9808;52.402;16.678;2024-02-28T13:41:19;65.27;;;25.50;;
19343;SDS011;9808;52.402;16.678;2024-02-28T13:43:46;67.30;;;24.67;;
19343;SDS011;9808;52.402;16.678;2024-02-28T13:46:13;58.30;;;20.80;;
19343;SDS011;9808;52.402;16.678;2024-02-28T13:48:41;54.10;;;20.03;;
19343;SDS011;9808;52.402;16.678;2024-02-28T13:51:09;63.83;;;21.97;;
19343;SDS011;9808;52.402;16.678;2024-02-28T13:53:37;61.87;;;22.53;;
19343;SDS011;9808;52.402;16.678;2024-02-28T13:56:04;67.73;;;22.20;;
19343;SDS011;9808;52.402;16.678;2024-02-28T13:58:31;59.17;;;21.07;;
19343;SDS011;9808;52.402;16.678;2024-02-28T14:01:08;63.93;;;21.77;;
19343;SDS011;9808;52.402;16.678;2024-02-28T14:03:36;86.30;;;27.87;;
19343;SDS011;9808;52.402;16.678;2024-02-28T14:06:05;73.83;;;25.67;;
19343;SDS011;9808;52.402;16.678;2024-02-28T14:08:34;85.90;;;27.83;;
19343;SDS011;9808;52.402;16.678;2024-02-28T14:11:02;64.47;;;22.07;;
19343;SDS011;9808;52.402;16.678;2024-02-28T14:13:29;56.57;;;18.87;;
19343;SDS011;9808;52.402;16.678;2024-02-28T14:15:56;76.53;;;25.37;;
19343;SDS011;9808;52.402;16.678;2024-02-28T14:18:24;80.47;;;25.90;;
19343;SDS011;9808;52.402;16.678;2024-02-28T14:20:51;77.30;;;25.00;;
19343;SDS011;9808;52.402;16.678;2024-02-28T14:23:18;66.67;;;22.37;;
19343;SDS011;9808;52.402;16.678;2024-02-28T14:25:52;70.23;;;21.67;;